Newberrytown, Pennsylvania
Current Conditions -  °F | °C
As of 10:56 PM on Sunday 23 Nov 2014 (Local Time) from KMDT Reporting Station
Light Rain Light Rain  
Wind Chill: 41°   Ceiling: 1500
Heat Index: 46°   Visibility: 6mi
Dew Point: 43°   Wind: 9mph
Humidity: 89%   Direction: 110°ESE
Pressure: 29.89"   Gusts: NA
Location:  40.1451°N, 76.7914°W
Report Text: KMDT 240356Z 11008KT 6SM -RA BR BKN015 OVC021 08/06 A2989 RMK AO2 RAB15 SLP125 P0003 T00780061
Loading
Personal Weather Stations






























Interactive Weather Map New forecast layout! Learn more

10-Day Weather Forecast

Advertisements
Track Severe Weather on mobile